Surface observations / UK / EGBB

Quebec | Canada | USA | France | UK | Europe | Elsewhere

Display: Info & Location for EGBB | Help decoding METAR

EGBB BIRMINGHAM AIRPORT -- UK
Raw surface observations for station EGBB
EGBB 030820Z 28008KT 240V310 9999 FEW025 10/04 Q1024=
EGBB 030750Z 26008KT 230V300 9999 FEW015 09/04 Q1024=
EGBB 030720Z 25006KT 210V290 CAVOK 08/04 Q1024=
EGBB 030650Z 26006KT 210V300 CAVOK 08/04 Q1024=
EGBB 030620Z 27006KT CAVOK 07/04 Q1023=
EGBB 030550Z 25004KT 210V280 CAVOK 06/03 Q1023=
EGBB 030520Z 25005KT 200V280 CAVOK 06/03 Q1023=
EGBB 030450Z 26006KT CAVOK 05/03 Q1022=
EGBB 030420Z 25005KT CAVOK 05/03 Q1022=
EGBB 030350Z 26006KT CAVOK 05/03 Q1022=
EGBB 030320Z 25004KT 220V280 CAVOK 05/03 Q1022=
EGBB 030250Z 26005KT CAVOK 06/03 Q1022=
EGBB 030220Z 25004KT 200V300 CAVOK 05/03 Q1022=
EGBB 030150Z 24004KT 210V270 CAVOK 06/03 Q1021=
EGBB 030120Z 26005KT CAVOK 06/03 Q1021=
EGBB 030050Z 26006KT CAVOK 07/03 Q1021=
EGBB 030020Z 26006KT CAVOK 07/03 Q1021=
EGBB 022350Z 27006KT CAVOK 07/03 Q1021=
EGBB 022320Z 27007KT CAVOK 07/03 Q1020=
EGBB 022250Z 28007KT CAVOK 08/03 Q1020=
EGBB 022220Z 28005KT CAVOK 08/03 Q1020=
EGBB 022150Z 30007KT 270V340 CAVOK 09/02 Q1020=
EGBB 022120Z 29005KT CAVOK 08/03 Q1019=
EGBB 022050Z 31005KT 9999 FEW035 09/04 Q1019=
EGBB 022020Z 32011KT 9999 FEW037 09/03 Q1019=
EGBB 021950Z 29013KT 9999 FEW046 10/02 Q1018=
EGBB 021920Z 29010KT 9999 FEW042 11/02 Q1017=
EGBB 021850Z 30012KT 9999 FEW045 12/03 Q1017=
EGBB 021820Z 30015KT 9999 SCT045TCU 12/03 Q1016=
EGBB 021750Z 30011KT CAVOK 13/03 Q1016=
EGBB 021720Z 30010KT CAVOK 13/03 Q1016=
EGBB 021650Z 30013KT CAVOK 13/02 Q1016=
EGBB 021620Z 30010KT 9999 SCT048 13/03 Q1016=
EGBB 021550Z 29012KT 9999 FEW044 13/05 Q1015=
EGBB 021520Z 27007KT 230V300 9999 FEW037 BKN045 12/08 Q1015=
EGBB 021450Z 28010KT 9999 -RA FEW016 BKN036 11/08 Q1015=
EGBB 021420Z 30008KT 9999 VCSH FEW007 SCT020 OVC029 11/08 Q1016 RERA=
EGBB 021350Z 22010KT 170V290 1400 R33/P1500 +RA BKN007 OVC013 12/11 Q1015=
EGBB 021320Z 21011KT 160V250 9999 BKN010 BKN019 13/11 Q1015=
EGBB 021250Z 21011KT 9999 -RA SCT012 BKN030 13/11 Q1015=
EGBB 021220Z 21016G26KT 170V250 9999 VCSH SCT022 BKN032 13/09 Q1015=
EGBB 021150Z 23011KT 190V260 9999 -SHRA SCT018 BKN034 14/09 Q1015=
EGBB 021120Z 22012KT 180V260 9999 SCT029 BKN036 15/08 Q1015=
EGBB 021050Z 22013KT 190V260 9999 SCT030 15/08 Q1016=
EGBB 021020Z 21012KT 9999 FEW030 15/08 Q1016=
EGBB 020950Z 21011G22KT 9999 FEW025 14/09 Q1016=
EGBB 020920Z 21012KT 170V260 9999 FEW020 14/09 Q1016=
EGBB 020850Z 21012KT 9999 SCT015 13/09 Q1017=
EGBB 020820Z 20012G22KT 9999 SCT016 13/09 Q1017=